createdAt,value
2022-08-18T00:01:50.295Z,32.17
2022-08-18T00:04:34.813Z,34.47
2022-08-18T00:07:10.878Z,33.10
2022-08-18T00:09:39.583Z,34.78
2022-08-18T00:12:20.799Z,32.83
2022-08-18T00:14:48.597Z,32.13
2022-08-18T00:17:16.347Z,31.63
2022-08-18T00:19:46.924Z,33.00
2022-08-18T00:22:19.990Z,31.17
2022-08-18T00:24:55.520Z,32.42
2022-08-18T00:27:28.948Z,32.65
2022-08-18T00:29:58.711Z,29.50
2022-08-18T00:32:34.647Z,36.00
2022-08-18T00:35:30.048Z,35.67
2022-08-18T00:37:59.878Z,35.00
2022-08-18T00:40:34.477Z,36.22
2022-08-18T00:43:06.047Z,33.17
2022-08-18T00:45:36.726Z,33.38
2022-08-18T00:48:04.843Z,31.88
2022-08-18T00:51:00.662Z,30.55
2022-08-18T00:53:45.949Z,33.42
2022-08-18T00:56:26.227Z,35.08
2022-08-18T00:58:58.465Z,33.97
2022-08-18T01:01:27.534Z,34.38
2022-08-18T01:04:00.492Z,33.58
2022-08-18T01:06:32.520Z,32.60
2022-08-18T01:09:00.162Z,37.97
2022-08-18T01:11:29.563Z,38.67
2022-08-18T01:13:58.342Z,36.30
2022-08-18T01:16:57.682Z,38.65
2022-08-18T01:19:44.055Z,31.50
2022-08-18T01:22:22.963Z,32.35
2022-08-18T01:25:10.226Z,33.35
2022-08-18T01:27:37.951Z,34.30
2022-08-18T01:30:10.464Z,35.40
2022-08-18T01:32:38.731Z,32.65
2022-08-18T01:35:11.644Z,32.35
2022-08-18T01:37:41.415Z,33.83
2022-08-18T01:41:17.242Z,37.60
2022-08-18T01:42:57.767Z,33.20
2022-08-18T01:45:25.429Z,33.83
2022-08-18T01:47:53.144Z,35.88
2022-08-18T01:50:21.158Z,36.65
2022-08-18T01:52:50.212Z,32.75
2022-08-18T01:55:18.327Z,31.90
2022-08-18T01:57:46.920Z,31.38
2022-08-18T02:00:16.118Z,33.17
2022-08-18T02:02:44.040Z,33.22
2022-08-18T02:05:24.674Z,33.83
2022-08-18T02:07:55.913Z,32.92
2022-08-18T02:10:23.777Z,35.83
2022-08-18T02:12:51.983Z,34.40
2022-08-18T02:15:19.720Z,31.20
2022-08-18T02:17:47.672Z,31.48
2022-08-18T02:20:16.913Z,30.45
2022-08-18T02:22:46.925Z,30.10
2022-08-18T02:25:14.736Z,30.17
2022-08-18T02:27:43.081Z,31.10
2022-08-18T02:30:12.838Z,30.52
2022-08-18T02:32:40.584Z,30.17
2022-08-18T02:35:11.534Z,33.40
2022-08-18T02:37:42.972Z,32.58
2022-08-18T02:40:15.154Z,30.05
2022-08-18T02:42:45.065Z,31.80
2022-08-18T02:45:13.666Z,30.75
2022-08-18T02:47:42.979Z,31.38
2022-08-18T02:50:13.371Z,31.73
2022-08-18T02:52:41.533Z,33.33
2022-08-18T02:55:10.007Z,30.85
2022-08-18T02:57:42.461Z,32.38
2022-08-18T03:00:13.713Z,32.63
2022-08-18T03:05:14.827Z,35.70
2022-08-18T03:07:43.278Z,35.03
2022-08-18T03:10:31.829Z,34.78
2022-08-18T03:12:59.231Z,34.72
2022-08-18T03:15:26.920Z,32.67
2022-08-18T03:17:56.370Z,31.45
2022-08-18T03:20:30.396Z,31.55
2022-08-18T03:22:59.766Z,31.45
2022-08-18T03:25:33.671Z,33.40
2022-08-18T03:28:02.651Z,34.65
2022-08-18T03:30:30.304Z,35.15
2022-08-18T03:32:58.479Z,31.45
2022-08-18T03:35:26.131Z,30.88
2022-08-18T03:37:56.028Z,27.67
2022-08-18T03:40:23.800Z,27.75
2022-08-18T03:42:51.391Z,27.67
2022-08-18T03:45:19.753Z,27.52
2022-08-18T03:47:47.460Z,27.02
2022-08-18T03:50:15.069Z,25.83
2022-08-18T03:52:42.630Z,25.52
2022-08-18T03:55:10.266Z,24.88
2022-08-18T03:57:39.319Z,24.63
2022-08-18T04:00:09.829Z,24.63
2022-08-18T04:02:37.410Z,22.97
2022-08-18T04:05:08.441Z,24.67
2022-08-18T04:07:37.952Z,23.73
2022-08-18T04:10:06.054Z,24.50
2022-08-18T04:12:43.452Z,24.58
2022-08-18T04:15:11.944Z,24.40
2022-08-18T04:18:03.435Z,23.25
2022-08-18T04:20:27.333Z,23.88
2022-08-18T04:22:55.848Z,21.05
2022-08-18T04:25:23.594Z,21.95
2022-08-18T04:27:51.325Z,23.48
2022-08-18T04:30:19.096Z,22.95
2022-08-18T04:32:46.648Z,22.83
2022-08-18T04:35:14.781Z,24.65
2022-08-18T04:37:44.055Z,22.20
2022-08-18T04:40:13.559Z,22.60
2022-08-18T04:42:43.517Z,21.83
2022-08-18T04:45:11.229Z,21.92
2022-08-18T04:47:41.769Z,22.83
2022-08-18T04:50:10.502Z,21.55
2022-08-18T04:52:56.920Z,22.58
2022-08-18T04:55:24.601Z,22.05
2022-08-18T04:57:52.662Z,22.77
2022-08-18T05:00:20.617Z,21.65
2022-08-18T05:02:48.943Z,19.85
2022-08-18T05:05:16.739Z,19.48
2022-08-18T05:07:46.035Z,19.38
2022-08-18T05:10:17.934Z,18.75
2022-08-18T05:12:47.725Z,18.63
2022-08-18T05:15:15.265Z,18.20
2022-08-18T05:17:50.503Z,19.35
2022-08-18T05:20:19.336Z,16.85
2022-08-18T05:22:47.505Z,16.58
2022-08-18T05:25:16.316Z,16.70
2022-08-18T05:27:45.244Z,16.92
2022-08-18T05:30:15.476Z,17.00
2022-08-18T05:32:48.147Z,17.70
2022-08-18T05:35:25.886Z,18.98
2022-08-18T05:37:57.367Z,16.50
2022-08-18T05:40:25.208Z,16.08
2022-08-18T05:42:54.041Z,17.17
2022-08-18T05:45:21.631Z,17.10
2022-08-18T05:47:49.463Z,18.35
2022-08-18T05:50:20.071Z,16.55
2022-08-18T05:53:13.226Z,16.90
2022-08-18T05:56:05.521Z,17.90
2022-08-18T05:58:42.271Z,17.58
2022-08-18T06:01:19.138Z,17.90
2022-08-18T06:03:50.609Z,17.67
2022-08-18T06:06:29.915Z,18.15
2022-08-18T06:09:18.171Z,16.30
2022-08-18T06:11:45.928Z,16.73
2022-08-18T06:14:14.331Z,17.60
2022-08-18T06:16:42.375Z,17.90
2022-08-18T06:19:46.768Z,17.85
2022-08-18T06:22:29.836Z,18.55
2022-08-18T06:25:26.683Z,18.08
2022-08-18T06:28:14.826Z,19.58
2022-08-18T06:30:42.866Z,27.95
2022-08-18T06:33:35.212Z,35.22
2022-08-18T06:36:08.957Z,40.40
2022-08-18T06:38:46.307Z,47.28
2022-08-18T06:41:41.964Z,41.60
2022-08-18T06:44:13.135Z,34.90
2022-08-18T06:46:53.864Z,36.72
2022-08-18T06:51:52.399Z,37.00
2022-08-18T06:54:19.831Z,34.08
2022-08-18T06:56:49.676Z,33.22
2022-08-18T06:59:19.084Z,34.08
2022-08-18T07:01:47.797Z,32.67
2022-08-18T07:04:38.478Z,31.25
2022-08-18T07:07:21.033Z,31.73
2022-08-18T07:09:49.539Z,31.27
2022-08-18T07:12:30.499Z,30.35
2022-08-18T07:15:01.982Z,30.35
2022-08-18T07:17:42.290Z,27.10
2022-08-18T07:20:18.803Z,26.58
2022-08-18T07:23:01.212Z,24.83
2022-08-18T07:25:32.199Z,26.55
2022-08-18T07:30:37.537Z,17.50
2022-08-18T07:33:08.041Z,14.30
2022-08-18T07:35:39.369Z,14.80
2022-08-18T07:38:40.885Z,16.30
2022-08-18T07:41:16.183Z,16.08
2022-08-18T07:43:51.984Z,15.10
2022-08-18T07:46:45.850Z,14.93
2022-08-18T07:49:24.937Z,14.35
2022-08-18T07:52:03.939Z,13.10
2022-08-18T07:54:50.481Z,12.98
2022-08-18T07:57:24.772Z,12.07
2022-08-18T08:00:20.689Z,12.38
2022-08-18T08:03:01.568Z,10.95
2022-08-18T08:05:48.684Z,11.23
2022-08-18T08:08:25.477Z,12.82
2022-08-18T08:10:56.318Z,13.10
2022-08-18T08:13:53.405Z,12.10
2022-08-18T08:16:48.550Z,10.73
2022-08-18T08:20:01.273Z,13.55
2022-08-18T08:22:33.468Z,15.15
2022-08-18T08:25:28.337Z,14.20
2022-08-18T08:28:07.508Z,14.25
2022-08-18T08:30:45.882Z,15.73
2022-08-18T08:33:44.413Z,14.90
2022-08-18T08:36:17.570Z,14.68
2022-08-18T08:38:49.736Z,14.90
2022-08-18T08:41:26.756Z,14.52
2022-08-18T08:44:09.539Z,15.18
2022-08-18T08:47:23.420Z,15.73
2022-08-18T08:50:00.603Z,15.65
2022-08-18T08:52:44.738Z,14.75
2022-08-18T08:55:19.417Z,16.13
2022-08-18T08:57:54.284Z,15.77
2022-08-18T09:00:21.997Z,15.95
2022-08-18T09:03:29.888Z,16.25
2022-08-18T09:06:17.204Z,15.43
2022-08-18T09:09:08.744Z,14.88
2022-08-18T09:11:50.292Z,15.60
2022-08-18T09:14:27.214Z,15.52
2022-08-18T09:17:16.180Z,13.35
2022-08-18T09:20:19.136Z,13.55
2022-08-18T09:22:55.046Z,13.15
2022-08-18T09:25:37.950Z,12.75
2022-08-18T09:28:15.079Z,14.63
2022-08-18T09:31:08.833Z,13.50
2022-08-18T09:33:40.805Z,10.32
2022-08-18T09:36:51.762Z,9.30
2022-08-18T09:45:34.043Z,11.82
2022-08-18T09:48:11.554Z,10.77
2022-08-18T09:50:37.043Z,12.82
2022-08-18T09:50:56.020Z,11.23
2022-08-18T09:53:54.412Z,11.25
2022-08-18T09:56:53.585Z,10.80
2022-08-18T09:59:35.209Z,11.82
2022-08-18T10:02:22.614Z,11.43
2022-08-18T10:05:21.276Z,10.40
2022-08-18T10:08:21.542Z,11.23
2022-08-18T10:11:16.752Z,9.50
2022-08-18T10:14:33.645Z,10.60
2022-08-18T10:17:23.965Z,9.32
2022-08-18T10:20:26.237Z,9.80
2022-08-18T10:23:01.818Z,9.63
2022-08-18T10:25:35.328Z,8.38
2022-08-18T10:28:05.886Z,9.93
2022-08-18T10:30:52.684Z,10.00
2022-08-18T10:33:57.545Z,9.00
2022-08-18T10:36:38.589Z,9.00
2022-08-18T10:39:11.021Z,8.98
2022-08-18T10:41:57.509Z,9.13
2022-08-18T10:44:29.581Z,9.38
2022-08-18T10:46:59.600Z,9.25
2022-08-18T10:49:29.193Z,8.82
2022-08-18T10:51:59.230Z,7.38
2022-08-18T10:54:50.791Z,7.63
2022-08-18T10:57:45.843Z,6.65
2022-08-18T11:00:18.751Z,7.63
2022-08-18T11:03:42.288Z,8.18
2022-08-18T11:06:18.041Z,7.47
2022-08-18T11:08:54.866Z,8.32
2022-08-18T11:11:53.055Z,7.65
2022-08-18T11:14:49.970Z,9.05
2022-08-18T11:17:54.966Z,8.07
2022-08-18T11:20:24.461Z,8.30
2022-08-18T11:23:00.467Z,9.23
2022-08-18T11:25:34.117Z,9.80
2022-08-18T11:28:02.433Z,9.82
2022-08-18T11:30:37.878Z,8.85
2022-08-18T11:33:08.690Z,10.10
2022-08-18T11:35:58.231Z,9.57
2022-08-18T11:38:29.621Z,10.25
2022-08-18T11:41:17.788Z,8.57
2022-08-18T11:43:48.297Z,9.60
2022-08-18T11:46:29.368Z,9.93
2022-08-18T11:49:00.533Z,9.00
2022-08-18T11:51:30.649Z,8.52
2022-08-18T11:54:05.222Z,6.60
2022-08-18T11:56:38.456Z,8.07
2022-08-18T11:59:08.484Z,8.70
2022-08-18T12:01:51.213Z,8.05
2022-08-18T12:04:21.279Z,7.82
2022-08-18T12:07:00.815Z,7.78
2022-08-18T12:12:32.564Z,7.85
2022-08-18T12:15:25.064Z,7.80
2022-08-18T12:17:57.323Z,9.32
2022-08-18T12:20:25.926Z,9.15
2022-08-18T12:22:54.867Z,9.38
2022-08-18T12:25:24.556Z,9.90
2022-08-18T12:27:54.871Z,9.48
2022-08-18T12:30:23.346Z,9.43
2022-08-18T12:33:01.002Z,10.40
2022-08-18T12:35:42.312Z,10.23
2022-08-18T12:40:59.118Z,10.63
2022-08-18T12:43:27.880Z,11.55
2022-08-18T12:46:00.621Z,10.27
2022-08-18T12:48:29.361Z,9.85
2022-08-18T12:50:58.405Z,11.38
2022-08-18T12:53:38.357Z,11.98
2022-08-18T12:56:27.363Z,12.70
2022-08-18T12:58:55.986Z,12.63
2022-08-18T13:01:25.439Z,12.50
2022-08-18T13:04:11.673Z,14.50
2022-08-18T13:07:00.527Z,12.48
2022-08-18T13:09:34.779Z,11.32
2022-08-18T13:12:17.501Z,11.27
2022-08-18T13:14:46.679Z,10.52
2022-08-18T13:17:28.996Z,10.23
2022-08-18T13:20:11.587Z,9.40
2022-08-18T13:22:42.009Z,10.30
2022-08-18T13:25:12.183Z,9.55
2022-08-18T13:27:45.699Z,9.90
2022-08-18T13:30:29.157Z,10.43
2022-08-18T13:33:02.518Z,9.48
2022-08-18T13:35:44.213Z,8.85
2022-08-18T13:38:20.673Z,9.45
2022-08-18T13:40:50.703Z,8.82
2022-08-18T13:43:23.342Z,8.68
2022-08-18T13:45:52.961Z,8.98
2022-08-18T13:48:25.826Z,9.93
2022-08-18T13:50:55.743Z,9.30
2022-08-18T13:53:24.832Z,8.70
2022-08-18T13:56:02.161Z,10.00
2022-08-18T13:58:32.417Z,10.35
2022-08-18T14:01:41.990Z,10.07
2022-08-18T14:03:52.817Z,9.97
2022-08-18T14:06:23.703Z,10.52
2022-08-18T14:11:32.886Z,10.30
2022-08-18T14:14:02.317Z,9.73
2022-08-18T14:16:32.350Z,10.82
2022-08-18T14:19:22.587Z,10.82
2022-08-18T14:22:12.562Z,10.95
2022-08-18T14:25:00.423Z,11.43
2022-08-18T14:27:35.627Z,10.70
2022-08-18T14:30:09.171Z,9.68
2022-08-18T14:32:59.619Z,10.35
2022-08-18T14:36:04.495Z,10.10
2022-08-18T14:38:16.228Z,10.32
2022-08-18T14:40:44.460Z,10.63
2022-08-18T14:43:14.196Z,10.18
2022-08-18T14:45:48.711Z,11.07
2022-08-18T14:48:18.713Z,10.82
2022-08-18T14:50:49.364Z,10.77
2022-08-18T14:53:20.473Z,12.63
2022-08-18T14:55:52.566Z,10.55
2022-08-18T14:58:26.880Z,10.07
2022-08-18T15:01:00.034Z,10.35
2022-08-18T15:03:31.562Z,9.70
2022-08-18T15:06:04.645Z,10.38
2022-08-18T15:08:36.007Z,10.18
2022-08-18T15:11:11.813Z,9.75
2022-08-18T15:13:45.236Z,9.93
2022-08-18T15:16:20.589Z,10.20
2022-08-18T15:18:56.129Z,9.85
2022-08-18T15:21:42.967Z,9.68
2022-08-18T15:24:29.306Z,9.73
2022-08-18T15:27:05.600Z,10.48
2022-08-18T15:29:34.915Z,9.77
2022-08-18T15:32:06.178Z,9.88
2022-08-18T15:34:47.194Z,9.85
2022-08-18T15:37:22.308Z,10.10
2022-08-18T15:40:21.731Z,11.32
2022-08-18T15:43:01.758Z,10.40
2022-08-18T15:45:35.619Z,9.73
2022-08-18T15:48:10.844Z,9.40
2022-08-18T15:50:41.791Z,9.15
2022-08-18T15:53:09.568Z,9.55
2022-08-18T15:55:39.283Z,9.60
2022-08-18T15:58:11.179Z,10.32
2022-08-18T16:00:46.073Z,11.55
2022-08-18T16:03:16.917Z,10.45
2022-08-18T16:05:53.083Z,8.88
2022-08-18T16:08:23.696Z,10.73
2022-08-18T16:10:54.183Z,10.88
2022-08-18T16:13:22.707Z,11.57
2022-08-18T16:15:50.724Z,12.27
2022-08-18T16:18:19.324Z,11.90
2022-08-18T16:20:47.249Z,12.60
2022-08-18T16:23:15.720Z,13.63
2022-08-18T16:25:43.729Z,14.00
2022-08-18T16:28:13.489Z,14.60
2022-08-18T16:30:41.667Z,14.48
2022-08-18T16:33:09.693Z,15.10
2022-08-18T16:35:37.651Z,16.83
2022-08-18T16:38:09.080Z,14.80
2022-08-18T16:40:36.989Z,16.00
2022-08-18T16:43:06.872Z,16.50
2022-08-18T16:45:36.995Z,16.50
2022-08-18T16:48:06.617Z,13.98
2022-08-18T16:50:35.715Z,13.75
2022-08-18T16:53:04.875Z,15.27
2022-08-18T16:55:32.428Z,14.23
2022-08-18T16:58:18.781Z,14.43
2022-08-18T17:01:05.076Z,14.98
2022-08-18T17:03:51.888Z,15.00
2022-08-18T17:06:19.672Z,17.23
2022-08-18T17:08:47.307Z,17.80
2022-08-18T17:11:17.369Z,16.63
2022-08-18T17:13:45.813Z,14.82
2022-08-18T17:16:13.697Z,15.75
2022-08-18T17:18:41.397Z,14.98
2022-08-18T17:21:10.736Z,14.00
2022-08-18T17:23:39.213Z,13.68
2022-08-18T17:26:08.348Z,13.18
2022-08-18T17:28:50.238Z,11.15
2022-08-18T17:31:20.793Z,10.18
2022-08-18T17:33:49.124Z,11.23
2022-08-18T17:36:23.528Z,10.45
2022-08-18T17:38:54.501Z,9.82
2022-08-18T17:41:23.774Z,9.73
2022-08-18T17:43:52.455Z,10.27
2022-08-18T17:46:29.338Z,11.38
2022-08-18T17:49:06.432Z,12.43
2022-08-18T17:51:46.940Z,12.77
2022-08-18T17:54:23.509Z,10.73
2022-08-18T17:56:55.469Z,9.13
2022-08-18T17:59:45.479Z,9.23
2022-08-18T18:02:29.163Z,9.52
2022-08-18T18:05:02.733Z,9.27
2022-08-18T18:07:56.825Z,8.95
2022-08-18T18:10:37.736Z,10.00
2022-08-18T18:13:12.329Z,9.32
2022-08-18T18:15:46.755Z,10.10
2022-08-18T18:18:21.843Z,10.35
2022-08-18T18:21:14.699Z,11.27
2022-08-18T18:23:46.052Z,10.63
2022-08-18T18:26:48.735Z,11.25
2022-08-18T18:29:19.491Z,11.15
2022-08-18T18:32:27.652Z,11.07
2022-08-18T18:35:27.444Z,11.68
2022-08-18T18:38:00.735Z,11.77
2022-08-18T18:40:39.452Z,11.20
2022-08-18T18:43:29.007Z,10.27
2022-08-18T18:46:18.660Z,10.43
2022-08-18T18:48:52.208Z,10.57
2022-08-18T18:51:33.948Z,11.13
2022-08-18T18:54:33.106Z,11.27
2022-08-18T18:57:00.739Z,11.00
2022-08-18T18:59:49.198Z,11.40
2022-08-18T19:02:46.247Z,10.90
2022-08-18T19:05:27.176Z,10.80
2022-08-18T19:08:15.940Z,11.88
2022-08-18T19:11:11.754Z,12.07
2022-08-18T19:13:42.254Z,12.88
2022-08-18T19:16:23.698Z,12.70
2022-08-18T19:19:38.108Z,13.85
2022-08-18T19:22:03.122Z,13.65
2022-08-18T19:24:41.363Z,12.50
2022-08-18T19:27:23.209Z,12.88
2022-08-18T19:29:52.480Z,12.93
2022-08-18T19:32:27.533Z,13.07
2022-08-18T19:34:55.954Z,12.73
2022-08-18T19:37:33.015Z,12.75
2022-08-18T19:40:17.516Z,12.15
2022-08-18T19:43:06.722Z,12.65
2022-08-18T19:45:58.033Z,12.55
2022-08-18T19:48:34.970Z,12.52
2022-08-18T19:51:10.347Z,12.77
2022-08-18T19:53:53.767Z,12.25
2022-08-18T19:56:32.896Z,12.13
2022-08-18T19:59:26.809Z,14.25
2022-08-18T20:02:21.372Z,13.60
2022-08-18T20:05:04.026Z,12.68
2022-08-18T20:07:55.261Z,13.35
2022-08-18T20:10:31.196Z,11.90
2022-08-18T20:13:09.250Z,13.05
2022-08-18T20:15:37.077Z,13.73
2022-08-18T20:18:18.231Z,13.15
2022-08-18T20:20:45.935Z,12.32
2022-08-18T20:23:34.162Z,13.10
2022-08-18T20:26:01.855Z,13.73
2022-08-18T20:28:39.085Z,13.63
2022-08-18T20:31:13.096Z,13.93
2022-08-18T20:34:04.254Z,13.77
2022-08-18T20:36:36.734Z,13.75
2022-08-18T20:39:32.348Z,14.10
2022-08-18T20:42:04.434Z,14.18
2022-08-18T20:44:44.247Z,13.05
2022-08-18T20:47:46.130Z,13.43
2022-08-18T20:50:38.332Z,15.45
2022-08-18T20:53:50.387Z,15.05
2022-08-18T20:56:31.954Z,14.93
2022-08-18T20:59:08.664Z,15.00
2022-08-18T21:01:37.339Z,14.65
2022-08-18T21:04:06.910Z,14.95
2022-08-18T21:06:42.169Z,14.43
2022-08-18T21:09:10.608Z,15.40
2022-08-18T21:11:44.236Z,13.98
2022-08-18T21:14:13.134Z,15.63
2022-08-18T21:16:45.205Z,15.27
2022-08-18T21:19:27.683Z,15.00
2022-08-18T21:22:04.150Z,14.30
2022-08-18T21:24:39.009Z,15.32
2022-08-18T21:27:07.689Z,16.35
2022-08-18T21:29:42.247Z,15.18
2022-08-18T21:32:20.133Z,14.88
2022-08-18T21:34:48.248Z,14.50
2022-08-18T21:37:17.339Z,15.38
2022-08-18T21:39:52.979Z,14.38
2022-08-18T21:42:41.361Z,16.17
2022-08-18T21:45:19.423Z,15.02
2022-08-18T21:47:56.634Z,14.95
2022-08-18T21:50:29.252Z,16.10
2022-08-18T21:53:01.319Z,17.27
2022-08-18T21:55:40.737Z,14.48
2022-08-18T21:58:18.200Z,15.38
2022-08-18T22:01:04.949Z,16.45
2022-08-18T22:03:32.780Z,17.38
2022-08-18T22:06:13.797Z,15.68
2022-08-18T22:08:49.744Z,16.15
2022-08-18T22:11:59.580Z,16.13
2022-08-18T22:14:53.529Z,16.13
2022-08-18T22:17:29.572Z,16.52
2022-08-18T22:20:35.524Z,15.63
2022-08-18T22:23:24.893Z,18.48
2022-08-18T22:25:52.691Z,16.17
2022-08-18T22:28:24.318Z,18.10
2022-08-18T22:30:55.066Z,18.38
2022-08-18T22:33:23.576Z,15.70
2022-08-18T22:35:57.459Z,18.00
2022-08-18T22:38:25.472Z,17.20
2022-08-18T22:40:53.077Z,18.80
2022-08-18T22:43:20.665Z,18.98
2022-08-18T22:45:48.261Z,21.15
2022-08-18T22:48:16.638Z,21.02
2022-08-18T22:50:46.195Z,19.67
2022-08-18T22:53:14.369Z,21.02
2022-08-18T22:55:41.936Z,21.67
2022-08-18T22:58:09.645Z,21.67
2022-08-18T23:00:39.724Z,22.23
2022-08-18T23:03:09.839Z,23.90
2022-08-18T23:05:37.539Z,23.35
2022-08-18T23:08:05.833Z,22.63
2022-08-18T23:10:33.542Z,20.45
2022-08-18T23:13:04.455Z,22.13
2022-08-18T23:18:19.955Z,22.10
2022-08-18T23:21:00.247Z,20.55
2022-08-18T23:23:28.832Z,21.85
2022-08-18T23:25:56.558Z,23.45
2022-08-18T23:28:27.260Z,22.65
2022-08-18T23:30:58.104Z,24.73
2022-08-18T23:33:26.146Z,25.05
2022-08-18T23:35:53.849Z,25.98
2022-08-18T23:38:21.598Z,21.20
2022-08-18T23:40:59.093Z,22.52
2022-08-18T23:43:26.680Z,21.23
2022-08-18T23:45:54.249Z,23.10
2022-08-18T23:48:22.423Z,22.10
2022-08-18T23:50:50.128Z,23.27
2022-08-18T23:53:18.986Z,25.90
2022-08-18T23:55:46.656Z,28.60
2022-08-18T23:58:14.285Z,27.52
